createdAt,value
2022-08-03T00:00:46.680Z,18.50
2022-08-03T00:03:54.638Z,18.42
2022-08-03T00:07:02.719Z,18.40
2022-08-03T00:10:15.363Z,18.40
2022-08-03T00:13:23.437Z,18.30
2022-08-03T00:16:31.481Z,18.28
2022-08-03T00:19:39.392Z,18.26
2022-08-03T00:22:47.559Z,18.28
2022-08-03T00:25:56.114Z,18.28
2022-08-03T00:29:04.043Z,18.30
2022-08-03T00:32:12.157Z,18.30
2022-08-03T00:35:27.372Z,18.22
2022-08-03T00:38:48.015Z,18.20
2022-08-03T00:41:55.958Z,18.14
2022-08-03T00:45:03.758Z,18.10
2022-08-03T00:48:29.690Z,18.10
2022-08-03T00:51:40.175Z,18.00
2022-08-03T00:54:49.310Z,18.00
2022-08-03T00:57:59.627Z,17.90
2022-08-03T01:01:07.631Z,17.82
2022-08-03T01:04:15.845Z,17.80
2022-08-03T01:07:35.146Z,17.80
2022-08-03T01:10:55.911Z,17.80
2022-08-03T01:14:18.897Z,17.70
2022-08-03T01:17:38.226Z,17.70
2022-08-03T01:20:53.630Z,17.70
2022-08-03T01:24:24.029Z,17.70
2022-08-03T01:27:53.876Z,17.70
2022-08-03T01:31:05.170Z,17.70
2022-08-03T01:34:17.528Z,17.68
2022-08-03T01:37:33.662Z,17.60
2022-08-03T01:40:49.051Z,17.50
2022-08-03T01:44:29.499Z,17.50
2022-08-03T01:47:31.866Z,17.40
2022-08-03T01:50:42.250Z,17.40
2022-08-03T01:53:54.941Z,17.38
2022-08-03T01:57:04.734Z,17.30
2022-08-03T02:00:15.426Z,17.30
2022-08-03T02:03:25.231Z,17.30
2022-08-03T02:07:00.140Z,17.40
2022-08-03T02:10:10.400Z,17.50
2022-08-03T02:13:20.946Z,17.52
2022-08-03T02:16:29.936Z,17.52
2022-08-03T02:19:39.159Z,17.50
2022-08-03T02:22:49.744Z,17.50
2022-08-03T02:26:03.641Z,17.40
2022-08-03T02:29:21.517Z,17.40
2022-08-03T02:32:57.364Z,17.40
2022-08-03T02:36:08.069Z,17.40
2022-08-03T02:39:21.938Z,17.40
2022-08-03T02:42:33.253Z,17.40
2022-08-03T02:45:48.577Z,17.50
2022-08-03T02:48:57.417Z,17.60
2022-08-03T02:52:12.568Z,17.70
2022-08-03T02:55:22.911Z,17.76
2022-08-03T02:58:32.776Z,17.80
2022-08-03T03:01:41.826Z,17.90
2022-08-03T03:05:51.153Z,18.00
2022-08-03T03:08:27.480Z,18.10
2022-08-03T03:11:40.193Z,18.20
2022-08-03T03:14:48.418Z,18.20
2022-08-03T03:17:56.875Z,18.20
2022-08-03T03:21:09.013Z,18.24
2022-08-03T03:24:17.840Z,18.20
2022-08-03T03:27:26.780Z,18.20
2022-08-03T03:30:36.270Z,18.20
2022-08-03T03:33:44.475Z,18.20
2022-08-03T03:36:52.487Z,18.20
2022-08-03T03:40:01.471Z,18.10
2022-08-03T03:43:12.911Z,18.10
2022-08-03T03:46:21.516Z,18.02
2022-08-03T03:49:30.137Z,18.00
2022-08-03T03:52:38.359Z,17.98
2022-08-03T03:56:02.041Z,17.90
2022-08-03T03:59:10.655Z,17.86
2022-08-03T04:02:18.801Z,17.80
2022-08-03T04:05:45.972Z,17.86
2022-08-03T04:09:11.303Z,17.90
2022-08-03T04:12:20.971Z,17.90
2022-08-03T04:15:30.296Z,17.90
2022-08-03T04:18:42.510Z,17.90
2022-08-03T04:21:56.882Z,17.90
2022-08-03T04:25:11.603Z,17.88
2022-08-03T04:28:30.450Z,17.90
2022-08-03T04:31:42.202Z,17.90
2022-08-03T04:34:50.655Z,17.90
2022-08-03T04:38:03.839Z,17.90
2022-08-03T04:41:13.154Z,17.90
2022-08-03T04:44:23.135Z,17.90
2022-08-03T04:47:39.435Z,18.00
2022-08-03T04:50:48.822Z,18.00
2022-08-03T04:53:56.766Z,18.00
2022-08-03T04:57:04.777Z,18.10
2022-08-03T05:00:15.881Z,18.10
2022-08-03T05:03:25.260Z,18.10
2022-08-03T05:06:33.327Z,18.10
2022-08-03T05:09:49.900Z,18.10
2022-08-03T05:13:00.655Z,18.10
2022-08-03T05:16:09.070Z,18.10
2022-08-03T05:19:17.091Z,18.10
2022-08-03T05:22:25.418Z,18.10
2022-08-03T05:25:33.826Z,18.20
2022-08-03T05:28:49.981Z,18.20
2022-08-03T05:31:59.717Z,18.30
2022-08-03T05:35:55.650Z,18.30
2022-08-03T05:38:37.219Z,18.50
2022-08-03T05:41:45.153Z,18.62
2022-08-03T05:44:53.643Z,18.84
2022-08-03T05:48:01.696Z,19.00
2022-08-03T05:51:12.121Z,19.20
2022-08-03T05:54:20.303Z,19.40
2022-08-03T05:57:28.477Z,19.60
2022-08-03T06:00:36.448Z,19.80
2022-08-03T06:03:44.763Z,20.06
2022-08-03T06:06:53.168Z,20.30
2022-08-03T06:10:35.970Z,20.50
2022-08-03T06:13:30.638Z,20.70
2022-08-03T06:16:38.918Z,20.90
2022-08-03T06:19:46.847Z,21.00
2022-08-03T06:23:00.359Z,21.20
2022-08-03T06:26:09.045Z,21.40
2022-08-03T06:29:17.067Z,21.60
2022-08-03T06:32:25.045Z,21.70
2022-08-03T06:35:33.007Z,21.90
2022-08-03T06:38:43.283Z,22.10
2022-08-03T06:41:51.501Z,22.26
2022-08-03T06:44:59.799Z,22.40
2022-08-03T06:48:10.529Z,22.54
2022-08-03T06:51:18.583Z,22.70
2022-08-03T06:54:26.894Z,22.90
2022-08-03T06:57:35.623Z,23.10
2022-08-03T07:00:43.966Z,23.30
2022-08-03T07:03:52.553Z,23.54
2022-08-03T07:07:00.970Z,23.78
2022-08-03T07:10:11.854Z,23.90
2022-08-03T07:13:19.889Z,24.00
2022-08-03T07:16:29.923Z,24.20
2022-08-03T07:19:37.911Z,24.40
2022-08-03T07:22:46.533Z,24.60
2022-08-03T07:25:55.282Z,24.80
2022-08-03T07:29:03.634Z,24.90
2022-08-03T07:32:23.040Z,24.94
2022-08-03T07:35:30.966Z,25.10
2022-08-03T07:38:39.444Z,25.28
2022-08-03T07:41:50.446Z,25.44
2022-08-03T07:44:58.682Z,25.60
2022-08-03T07:48:11.973Z,25.78
2022-08-03T07:51:20.577Z,25.90
2022-08-03T07:54:28.387Z,26.00
2022-08-03T07:57:36.559Z,26.10
2022-08-03T08:00:44.977Z,26.26
2022-08-03T08:03:53.829Z,26.30
2022-08-03T08:07:01.777Z,26.40
2022-08-03T08:10:12.129Z,26.50
2022-08-03T08:13:20.777Z,26.70
2022-08-03T08:16:29.401Z,26.76
2022-08-03T08:19:38.348Z,26.86
2022-08-03T08:22:51.916Z,26.92
2022-08-03T08:25:59.955Z,27.10
2022-08-03T08:29:08.194Z,27.20
2022-08-03T08:32:16.439Z,27.40
2022-08-03T08:35:25.096Z,27.54
2022-08-03T08:38:33.153Z,27.70
2022-08-03T08:41:41.013Z,27.80
2022-08-03T08:44:54.936Z,27.90
2022-08-03T08:48:08.494Z,27.96
2022-08-03T08:51:17.940Z,28.00
2022-08-03T08:54:27.249Z,27.88
2022-08-03T08:57:43.312Z,28.00
2022-08-03T09:00:52.302Z,28.20
2022-08-03T09:04:00.127Z,28.10
2022-08-03T09:07:19.622Z,28.00
2022-08-03T09:10:28.317Z,27.90
2022-08-03T09:13:38.096Z,27.90
2022-08-03T09:17:02.191Z,28.10
2022-08-03T09:20:13.396Z,28.40
2022-08-03T09:23:58.914Z,28.60
2022-08-03T09:26:54.876Z,28.68
2022-08-03T09:30:02.730Z,28.60
2022-08-03T09:33:13.201Z,28.40
2022-08-03T09:36:39.650Z,28.30
2022-08-03T09:39:49.685Z,28.50
2022-08-03T09:43:01.921Z,28.60
2022-08-03T09:46:10.318Z,28.60
2022-08-03T09:49:18.613Z,28.50
2022-08-03T09:52:49.344Z,28.40
2022-08-03T09:56:35.117Z,28.40
2022-08-03T09:59:31.622Z,28.26
2022-08-03T10:02:40.105Z,28.20
2022-08-03T10:05:48.153Z,28.10
2022-08-03T10:09:11.369Z,28.06
2022-08-03T10:12:19.608Z,27.90
2022-08-03T10:16:21.601Z,27.86
2022-08-03T10:18:58.019Z,27.80
2022-08-03T10:22:13.906Z,27.70
2022-08-03T10:25:23.023Z,27.90
2022-08-03T10:28:51.039Z,28.42
2022-08-03T10:32:03.750Z,28.92
2022-08-03T10:35:20.877Z,29.26
2022-08-03T10:38:40.033Z,29.74
2022-08-03T10:41:49.283Z,30.36
2022-08-03T10:45:05.072Z,30.70
2022-08-03T10:48:14.503Z,31.00
2022-08-03T10:51:24.389Z,30.80
2022-08-03T10:55:07.623Z,30.60
2022-08-03T10:58:57.192Z,30.30
2022-08-03T11:02:08.537Z,30.06
2022-08-03T11:05:34.002Z,29.84
2022-08-03T11:08:43.690Z,29.60
2022-08-03T11:11:54.889Z,29.40
2022-08-03T11:15:06.730Z,29.30
2022-08-03T11:18:16.959Z,29.10
2022-08-03T11:22:00.084Z,29.00
2022-08-03T11:25:53.718Z,28.96
2022-08-03T11:28:40.029Z,29.00
2022-08-03T11:31:52.063Z,29.00
2022-08-03T11:35:14.548Z,29.06
2022-08-03T11:38:24.909Z,29.24
2022-08-03T11:41:43.355Z,29.84
2022-08-03T11:44:55.463Z,30.48
2022-08-03T11:48:15.232Z,30.96
2022-08-03T11:51:28.265Z,31.20
2022-08-03T11:54:37.211Z,31.40
2022-08-03T11:59:19.011Z,31.84
2022-08-03T12:01:21.208Z,32.30
2022-08-03T12:04:31.065Z,32.60
2022-08-03T12:08:04.071Z,32.78
2022-08-03T12:11:17.598Z,32.70
2022-08-03T12:14:48.940Z,32.32
2022-08-03T12:17:57.644Z,31.98
2022-08-03T12:21:13.241Z,31.68
2022-08-03T12:24:21.416Z,31.40
2022-08-03T12:27:30.789Z,31.16
2022-08-03T12:30:39.596Z,31.00
2022-08-03T12:34:07.390Z,30.80
2022-08-03T12:37:29.876Z,30.62
2022-08-03T12:40:38.045Z,30.40
2022-08-03T12:43:55.339Z,30.30
2022-08-03T12:47:06.805Z,30.40
2022-08-03T12:50:31.535Z,30.24
2022-08-03T12:53:40.105Z,30.10
2022-08-03T13:00:35.394Z,30.08
2022-08-03T13:03:49.991Z,30.10
2022-08-03T13:07:03.337Z,30.10
2022-08-03T13:10:10.775Z,30.02
2022-08-03T13:13:16.092Z,30.00
2022-08-03T13:16:21.791Z,29.90
2022-08-03T13:19:26.792Z,29.90
2022-08-03T13:22:32.839Z,29.92
2022-08-03T13:25:37.491Z,30.06
2022-08-03T13:29:00.112Z,30.66
2022-08-03T13:32:07.204Z,30.80
2022-08-03T13:35:12.364Z,31.30
2022-08-03T13:38:21.923Z,31.90
2022-08-03T13:41:33.232Z,32.40
2022-08-03T13:44:38.255Z,32.90
2022-08-03T13:47:42.986Z,33.30
2022-08-03T13:50:48.230Z,33.50
2022-08-03T13:53:54.250Z,33.80
2022-08-03T13:58:01.355Z,34.18
2022-08-03T14:00:27.513Z,34.40
2022-08-03T14:03:33.575Z,34.64
2022-08-03T14:06:38.489Z,34.80
2022-08-03T14:09:51.085Z,34.90
2022-08-03T14:12:59.610Z,34.84
2022-08-03T14:16:05.376Z,34.34
2022-08-03T14:19:15.682Z,33.82
2022-08-03T14:22:20.372Z,33.38
2022-08-03T14:25:25.062Z,33.00
2022-08-03T14:28:30.222Z,32.68
2022-08-03T14:32:11.315Z,32.34
2022-08-03T14:35:00.263Z,32.00
2022-08-03T14:38:05.045Z,31.70
2022-08-03T14:41:19.949Z,31.50
2022-08-03T14:44:25.296Z,31.30
2022-08-03T14:47:30.371Z,31.10
2022-08-03T14:50:44.224Z,31.00
2022-08-03T14:53:51.909Z,30.80
2022-08-03T14:56:56.545Z,30.60
2022-08-03T15:00:06.204Z,30.50
2022-08-03T15:03:11.524Z,30.40
2022-08-03T15:06:22.000Z,30.30
2022-08-03T15:09:26.826Z,30.26
2022-08-03T15:12:31.769Z,30.30
2022-08-03T15:15:36.777Z,30.30
2022-08-03T15:18:41.471Z,30.52
2022-08-03T15:21:47.756Z,30.88
2022-08-03T15:24:53.246Z,31.20
2022-08-03T15:28:03.410Z,31.40
2022-08-03T15:31:09.371Z,31.64
2022-08-03T15:34:14.016Z,31.80
2022-08-03T15:37:19.515Z,32.00
2022-08-03T15:40:24.292Z,32.10
2022-08-03T15:43:29.086Z,32.00
2022-08-03T15:46:33.761Z,31.80
2022-08-03T15:49:38.778Z,31.58
2022-08-03T15:52:43.675Z,31.32
2022-08-03T15:55:49.028Z,31.10
2022-08-03T15:59:10.193Z,31.00
2022-08-03T16:02:18.276Z,30.80
2022-08-03T16:05:23.257Z,30.68
2022-08-03T16:08:28.255Z,30.60
2022-08-03T16:11:33.852Z,30.50
2022-08-03T16:14:49.384Z,30.40
2022-08-03T16:17:57.096Z,30.30
2022-08-03T16:21:02.334Z,30.28
2022-08-03T16:24:09.560Z,30.20
2022-08-03T16:27:56.804Z,30.16
2022-08-03T16:30:48.687Z,30.10
2022-08-03T16:33:53.737Z,30.00
2022-08-03T16:36:58.819Z,29.94
2022-08-03T16:40:04.511Z,29.90
2022-08-03T16:43:18.468Z,29.80
2022-08-03T16:46:24.011Z,29.70
2022-08-03T16:49:53.282Z,29.60
2022-08-03T16:52:53.924Z,29.60
2022-08-03T16:55:59.908Z,29.50
2022-08-03T16:59:05.809Z,29.40
2022-08-03T17:02:26.008Z,29.30
2022-08-03T17:05:32.690Z,29.30
2022-08-03T17:08:55.390Z,29.20
2022-08-03T17:12:00.424Z,29.10
2022-08-03T17:15:10.633Z,29.00
2022-08-03T17:18:18.879Z,28.90
2022-08-03T17:21:30.872Z,28.80
2022-08-03T17:24:41.191Z,28.80
2022-08-03T17:28:51.172Z,28.70
2022-08-03T17:31:22.949Z,28.60
2022-08-03T17:34:36.902Z,28.40
2022-08-03T17:37:57.947Z,28.30
2022-08-03T17:41:10.897Z,28.20
2022-08-03T17:44:31.050Z,28.10
2022-08-03T17:47:41.921Z,28.00
2022-08-03T17:50:53.644Z,27.90
2022-08-03T17:54:18.388Z,27.80
2022-08-03T17:58:01.388Z,27.70
2022-08-03T18:02:02.547Z,27.52
2022-08-03T18:04:57.329Z,27.38
2022-08-03T18:08:11.596Z,27.20
2022-08-03T18:11:23.097Z,27.10
2022-08-03T18:14:39.952Z,26.90
2022-08-03T18:18:10.390Z,26.80
2022-08-03T18:21:16.974Z,26.70
2022-08-03T18:24:24.890Z,26.50
2022-08-03T18:27:42.626Z,26.40
2022-08-03T18:30:53.542Z,26.30
2022-08-03T18:34:19.465Z,26.16
2022-08-03T18:37:27.406Z,26.00
2022-08-03T18:40:36.247Z,25.90
2022-08-03T18:44:06.462Z,25.80
2022-08-03T18:47:52.455Z,25.60
2022-08-03T18:51:06.793Z,25.50
2022-08-03T18:54:59.152Z,25.30
2022-08-03T18:57:52.086Z,25.20
2022-08-03T19:04:50.795Z,24.96
2022-08-03T19:08:11.559Z,24.80
2022-08-03T19:11:28.089Z,24.72
2022-08-03T19:14:42.357Z,24.60
2022-08-03T19:17:50.242Z,24.50
2022-08-03T19:21:00.601Z,24.40
2022-08-03T19:24:10.458Z,24.30
2022-08-03T19:27:16.322Z,24.28
2022-08-03T19:30:38.985Z,24.20
2022-08-03T19:33:56.084Z,24.10
2022-08-03T19:37:03.397Z,24.00
2022-08-03T19:40:12.642Z,23.90
2022-08-03T19:43:26.236Z,23.84
2022-08-03T19:46:51.214Z,23.80
2022-08-03T19:50:05.821Z,23.70
2022-08-03T19:53:21.623Z,23.60
2022-08-03T19:56:28.696Z,23.60
2022-08-03T19:59:50.122Z,23.50
2022-08-03T20:02:55.986Z,23.42
2022-08-03T20:06:01.703Z,23.40
2022-08-03T20:09:08.677Z,23.30
2022-08-03T20:12:18.780Z,23.30
2022-08-03T20:15:32.422Z,23.20
2022-08-03T20:18:46.317Z,23.20
2022-08-03T20:21:54.738Z,23.10
2022-08-03T20:25:06.338Z,23.10
2022-08-03T20:28:15.089Z,23.00
2022-08-03T20:31:32.068Z,23.00
2022-08-03T20:34:41.258Z,23.00
2022-08-03T20:37:45.855Z,22.90
2022-08-03T20:40:51.507Z,22.90
2022-08-03T20:43:56.386Z,22.86
2022-08-03T20:47:04.953Z,22.80
2022-08-03T20:50:16.956Z,22.80
2022-08-03T20:54:00.449Z,22.80
2022-08-03T20:56:49.447Z,22.70
2022-08-03T20:59:54.783Z,22.70
2022-08-03T21:03:00.420Z,22.60
2022-08-03T21:06:07.685Z,22.60
2022-08-03T21:09:19.779Z,22.60
2022-08-03T21:12:39.845Z,22.50
2022-08-03T21:13:10.079Z,25.10
2022-08-03T21:16:02.345Z,22.50
2022-08-03T21:19:16.390Z,22.50
2022-08-03T21:22:25.879Z,22.40
2022-08-03T21:25:31.790Z,22.40
2022-08-03T21:28:37.839Z,22.30
2022-08-03T21:31:43.485Z,22.30
2022-08-03T21:34:49.996Z,22.20
2022-08-03T21:38:13.672Z,22.20
2022-08-03T21:41:18.702Z,22.20
2022-08-03T21:44:28.796Z,22.20
2022-08-03T21:47:39.807Z,22.10
2022-08-03T21:50:48.283Z,22.10
2022-08-03T21:54:02.375Z,22.00
2022-08-03T21:57:21.658Z,22.00
2022-08-03T22:00:27.106Z,21.90
2022-08-03T22:03:32.215Z,21.90
2022-08-03T22:06:57.823Z,21.80
2022-08-03T22:10:05.323Z,21.78
2022-08-03T22:13:10.768Z,21.70
2022-08-03T22:16:16.796Z,21.70
2022-08-03T22:19:22.549Z,21.60
2022-08-03T22:22:30.142Z,21.60
2022-08-03T22:25:39.616Z,21.50
2022-08-03T22:28:44.513Z,21.50
2022-08-03T22:31:58.151Z,21.40
2022-08-03T22:35:07.736Z,21.38
2022-08-03T22:38:13.228Z,21.30
2022-08-03T22:41:19.710Z,21.28
2022-08-03T22:44:25.980Z,21.20
2022-08-03T22:47:34.761Z,21.20
2022-08-03T22:50:41.284Z,21.10
2022-08-03T22:53:47.360Z,21.00
2022-08-03T22:56:52.436Z,21.00
2022-08-03T22:59:58.059Z,20.90
2022-08-03T23:03:06.244Z,20.90
2022-08-03T23:06:11.272Z,20.80
2022-08-03T23:09:19.095Z,20.80
2022-08-03T23:12:24.568Z,20.80
2022-08-03T23:15:33.600Z,20.80
2022-08-03T23:18:42.288Z,20.80
2022-08-03T23:22:00.362Z,20.80
2022-08-03T23:25:09.778Z,20.80
2022-08-03T23:28:16.541Z,20.80
2022-08-03T23:31:24.957Z,20.76
2022-08-03T23:34:50.658Z,20.70
2022-08-03T23:38:04.107Z,20.60
2022-08-03T23:41:22.601Z,20.60
2022-08-03T23:44:31.832Z,20.50
2022-08-03T23:47:46.302Z,20.50
2022-08-03T23:51:13.151Z,20.50
2022-08-03T23:54:35.340Z,20.50
2022-08-03T23:57:58.210Z,20.54
